sensor_id;sensor_type;location;lat;lon;timestamp;temperature;humidity
16437;DHT22;8328;52.206;21.006;2022-08-19T00:01:44;22.30;99.90
16437;DHT22;8328;52.206;21.006;2022-08-19T00:04:13;22.30;99.90
16437;DHT22;8328;52.206;21.006;2022-08-19T00:06:41;22.20;99.90
16437;DHT22;8328;52.206;21.006;2022-08-19T00:09:10;22.20;99.90
16437;DHT22;8328;52.206;21.006;2022-08-19T00:11:36;22.20;99.90
16437;DHT22;8328;52.206;21.006;2022-08-19T00:14:04;22.20;99.90
16437;DHT22;8328;52.206;21.006;2022-08-19T00:16:30;22.10;99.90
16437;DHT22;8328;52.206;21.006;2022-08-19T00:18:56;22.20;99.90
16437;DHT22;8328;52.206;21.006;2022-08-19T00:21:24;22.30;99.90
16437;DHT22;8328;52.206;21.006;2022-08-19T00:23:50;22.10;99.90
16437;DHT22;8328;52.206;21.006;2022-08-19T00:26:16;22.10;99.90
16437;DHT22;8328;52.206;21.006;2022-08-19T00:28:41;22.00;99.90
16437;DHT22;8328;52.206;21.006;2022-08-19T00:31:09;22.00;99.90
16437;DHT22;8328;52.206;21.006;2022-08-19T00:33:35;22.00;99.90
16437;DHT22;8328;52.206;21.006;2022-08-19T00:36:04;22.00;99.90
16437;DHT22;8328;52.206;21.006;2022-08-19T00:38:31;22.00;99.90
16437;DHT22;8328;52.206;21.006;2022-08-19T00:40:57;22.00;99.90
16437;DHT22;8328;52.206;21.006;2022-08-19T00:43:26;22.00;99.90
16437;DHT22;8328;52.206;21.006;2022-08-19T00:45:53;21.90;99.90
16437;DHT22;8328;52.206;21.006;2022-08-19T00:48:20;21.80;99.90
16437;DHT22;8328;52.206;21.006;2022-08-19T00:50:48;21.80;99.90
16437;DHT22;8328;52.206;21.006;2022-08-19T00:53:19;21.80;99.90
16437;DHT22;8328;52.206;21.006;2022-08-19T00:55:48;21.80;99.90
16437;DHT22;8328;52.206;21.006;2022-08-19T00:58:17;21.80;99.90
16437;DHT22;8328;52.206;21.006;2022-08-19T01:00:45;21.80;99.90
16437;DHT22;8328;52.206;21.006;2022-08-19T01:03:15;21.80;99.90
16437;DHT22;8328;52.206;21.006;2022-08-19T01:05:44;21.80;99.90
16437;DHT22;8328;52.206;21.006;2022-08-19T01:08:11;21.80;99.90
16437;DHT22;8328;52.206;21.006;2022-08-19T01:10:41;21.80;99.90
16437;DHT22;8328;52.206;21.006;2022-08-19T01:13:08;21.80;99.90
16437;DHT22;8328;52.206;21.006;2022-08-19T01:15:50;21.80;99.90
16437;DHT22;8328;52.206;21.006;2022-08-19T01:18:18;21.60;99.90
16437;DHT22;8328;52.206;21.006;2022-08-19T01:20:48;21.70;99.90
16437;DHT22;8328;52.206;21.006;2022-08-19T01:23:15;21.70;99.90
16437;DHT22;8328;52.206;21.006;2022-08-19T01:25:50;21.70;99.90
16437;DHT22;8328;52.206;21.006;2022-08-19T01:28:20;21.70;99.90
16437;DHT22;8328;52.206;21.006;2022-08-19T01:30:47;21.70;99.90
16437;DHT22;8328;52.206;21.006;2022-08-19T01:33:15;21.70;99.90
16437;DHT22;8328;52.206;21.006;2022-08-19T01:35:41;21.70;99.90
16437;DHT22;8328;52.206;21.006;2022-08-19T01:38:10;21.60;99.90
16437;DHT22;8328;52.206;21.006;2022-08-19T01:40:44;21.60;99.90
16437;DHT22;8328;52.206;21.006;2022-08-19T01:43:10;21.50;99.90
16437;DHT22;8328;52.206;21.006;2022-08-19T01:45:36;21.60;99.90
16437;DHT22;8328;52.206;21.006;2022-08-19T01:48:04;21.50;99.90
16437;DHT22;8328;52.206;21.006;2022-08-19T01:50:32;21.50;99.90
16437;DHT22;8328;52.206;21.006;2022-08-19T01:53:00;21.40;99.90
16437;DHT22;8328;52.206;21.006;2022-08-19T01:55:26;21.50;99.90
16437;DHT22;8328;52.206;21.006;2022-08-19T01:57:55;21.40;99.90
16437;DHT22;8328;52.206;21.006;2022-08-19T02:00:24;21.40;99.90
16437;DHT22;8328;52.206;21.006;2022-08-19T02:02:52;21.40;99.90
16437;DHT22;8328;52.206;21.006;2022-08-19T02:05:18;21.40;99.90
16437;DHT22;8328;52.206;21.006;2022-08-19T02:07:46;21.40;99.90
16437;DHT22;8328;52.206;21.006;2022-08-19T02:10:16;21.30;99.90
16437;DHT22;8328;52.206;21.006;2022-08-19T02:12:43;21.30;99.90
16437;DHT22;8328;52.206;21.006;2022-08-19T02:15:09;21.30;99.90
16437;DHT22;8328;52.206;21.006;2022-08-19T02:17:35;21.30;99.90
16437;DHT22;8328;52.206;21.006;2022-08-19T02:20:01;21.30;99.90
16437;DHT22;8328;52.206;21.006;2022-08-19T02:22:28;21.20;99.90
16437;DHT22;8328;52.206;21.006;2022-08-19T02:24:54;21.30;99.90
16437;DHT22;8328;52.206;21.006;2022-08-19T02:27:22;21.20;99.90
16437;DHT22;8328;52.206;21.006;2022-08-19T02:29:49;21.10;99.90
16437;DHT22;8328;52.206;21.006;2022-08-19T02:32:16;21.10;99.90
16437;DHT22;8328;52.206;21.006;2022-08-19T02:34:42;21.10;99.90
16437;DHT22;8328;52.206;21.006;2022-08-19T02:37:08;21.10;99.90
16437;DHT22;8328;52.206;21.006;2022-08-19T02:39:54;21.00;99.90
16437;DHT22;8328;52.206;21.006;2022-08-19T02:42:19;21.00;99.90
16437;DHT22;8328;52.206;21.006;2022-08-19T02:44:45;21.00;99.90
16437;DHT22;8328;52.206;21.006;2022-08-19T02:47:11;21.10;99.90
16437;DHT22;8328;52.206;21.006;2022-08-19T02:49:38;21.00;99.90
16437;DHT22;8328;52.206;21.006;2022-08-19T02:52:04;21.00;99.90
16437;DHT22;8328;52.206;21.006;2022-08-19T02:54:30;21.00;99.90
16437;DHT22;8328;52.206;21.006;2022-08-19T02:56:56;21.00;99.90
16437;DHT22;8328;52.206;21.006;2022-08-19T02:59:22;21.00;99.90
16437;DHT22;8328;52.206;21.006;2022-08-19T03:01:47;21.00;99.90
16437;DHT22;8328;52.206;21.006;2022-08-19T03:04:14;21.00;99.90
16437;DHT22;8328;52.206;21.006;2022-08-19T03:06:43;20.90;99.90
16437;DHT22;8328;52.206;21.006;2022-08-19T03:09:10;20.90;99.90
16437;DHT22;8328;52.206;21.006;2022-08-19T03:11:36;20.90;99.90
16437;DHT22;8328;52.206;21.006;2022-08-19T03:14:04;20.90;99.90
16437;DHT22;8328;52.206;21.006;2022-08-19T03:16:37;20.90;99.90
16437;DHT22;8328;52.206;21.006;2022-08-19T03:19:05;20.90;99.90
16437;DHT22;8328;52.206;21.006;2022-08-19T03:21:32;20.80;99.90
16437;DHT22;8328;52.206;21.006;2022-08-19T03:24:02;20.80;99.90
16437;DHT22;8328;52.206;21.006;2022-08-19T03:26:29;20.80;99.90
16437;DHT22;8328;52.206;21.006;2022-08-19T03:28:55;20.80;99.90
16437;DHT22;8328;52.206;21.006;2022-08-19T03:31:22;20.80;99.90
16437;DHT22;8328;52.206;21.006;2022-08-19T03:33:49;20.80;99.90
16437;DHT22;8328;52.206;21.006;2022-08-19T03:36:20;20.80;99.90
16437;DHT22;8328;52.206;21.006;2022-08-19T03:38:49;20.80;99.90
16437;DHT22;8328;52.206;21.006;2022-08-19T03:41:18;20.90;99.90
16437;DHT22;8328;52.206;21.006;2022-08-19T03:43:45;20.90;99.90
16437;DHT22;8328;52.206;21.006;2022-08-19T03:46:20;20.90;99.90
16437;DHT22;8328;52.206;21.006;2022-08-19T03:48:47;21.00;99.90
16437;DHT22;8328;52.206;21.006;2022-08-19T03:51:28;21.00;99.90
16437;DHT22;8328;52.206;21.006;2022-08-19T03:53:57;21.00;99.90
16437;DHT22;8328;52.206;21.006;2022-08-19T03:56:28;21.10;99.90
16437;DHT22;8328;52.206;21.006;2022-08-19T03:58:55;21.10;99.90
16437;DHT22;8328;52.206;21.006;2022-08-19T04:01:24;21.20;99.90
16437;DHT22;8328;52.206;21.006;2022-08-19T04:03:52;21.20;99.90
16437;DHT22;8328;52.206;21.006;2022-08-19T04:06:21;21.30;99.90
16437;DHT22;8328;52.206;21.006;2022-08-19T04:08:49;21.40;99.90
16437;DHT22;8328;52.206;21.006;2022-08-19T04:11:18;21.40;99.90
16437;DHT22;8328;52.206;21.006;2022-08-19T04:13:47;21.40;99.90
16437;DHT22;8328;52.206;21.006;2022-08-19T04:16:13;21.40;99.90
16437;DHT22;8328;52.206;21.006;2022-08-19T04:18:40;21.50;99.90
16437;DHT22;8328;52.206;21.006;2022-08-19T04:21:08;21.60;99.90
16437;DHT22;8328;52.206;21.006;2022-08-19T04:23:34;21.70;99.90
16437;DHT22;8328;52.206;21.006;2022-08-19T04:26:03;21.90;99.90
16437;DHT22;8328;52.206;21.006;2022-08-19T04:28:49;22.30;99.90
16437;DHT22;8328;52.206;21.006;2022-08-19T04:31:19;22.80;99.90
16437;DHT22;8328;52.206;21.006;2022-08-19T04:33:46;23.20;99.90
16437;DHT22;8328;52.206;21.006;2022-08-19T04:36:26;23.50;99.90
16437;DHT22;8328;52.206;21.006;2022-08-19T04:38:58;23.80;99.90
16437;DHT22;8328;52.206;21.006;2022-08-19T04:41:24;24.00;99.90
16437;DHT22;8328;52.206;21.006;2022-08-19T04:44:09;24.20;99.90
16437;DHT22;8328;52.206;21.006;2022-08-19T04:46:41;24.40;99.90
16437;DHT22;8328;52.206;21.006;2022-08-19T04:49:11;24.70;99.90
16437;DHT22;8328;52.206;21.006;2022-08-19T04:51:41;24.80;99.90
16437;DHT22;8328;52.206;21.006;2022-08-19T04:54:08;24.90;99.90
16437;DHT22;8328;52.206;21.006;2022-08-19T04:56:34;25.00;99.90
16437;DHT22;8328;52.206;21.006;2022-08-19T04:59:37;25.10;99.90
16437;DHT22;8328;52.206;21.006;2022-08-19T05:02:11;25.10;99.90
16437;DHT22;8328;52.206;21.006;2022-08-19T05:07:21;25.40;99.90
16437;DHT22;8328;52.206;21.006;2022-08-19T05:10:26;25.40;99.90
16437;DHT22;8328;52.206;21.006;2022-08-19T05:13:02;25.30;99.90
16437;DHT22;8328;52.206;21.006;2022-08-19T05:15:31;25.20;99.90
16437;DHT22;8328;52.206;21.006;2022-08-19T05:18:01;25.00;99.90
16437;DHT22;8328;52.206;21.006;2022-08-19T05:20:46;24.90;99.90
16437;DHT22;8328;52.206;21.006;2022-08-19T05:23:43;24.90;99.90
16437;DHT22;8328;52.206;21.006;2022-08-19T05:34:22;24.70;99.90
16437;DHT22;8328;52.206;21.006;2022-08-19T05:37:10;24.60;99.90
16437;DHT22;8328;52.206;21.006;2022-08-19T05:43:07;24.70;99.90
16437;DHT22;8328;52.206;21.006;2022-08-19T05:45:48;24.60;99.90
16437;DHT22;8328;52.206;21.006;2022-08-19T05:48:16;24.70;99.90
16437;DHT22;8328;52.206;21.006;2022-08-19T05:50:46;24.70;99.90
16437;DHT22;8328;52.206;21.006;2022-08-19T05:59:08;25.90;99.90
16437;DHT22;8328;52.206;21.006;2022-08-19T06:01:52;25.90;99.90
16437;DHT22;8328;52.206;21.006;2022-08-19T06:04:26;26.00;99.90
16437;DHT22;8328;52.206;21.006;2022-08-19T06:06:56;25.90;99.90
16437;DHT22;8328;52.206;21.006;2022-08-19T06:09:26;26.30;99.90
16437;DHT22;8328;52.206;21.006;2022-08-19T06:11:55;26.50;99.90
16437;DHT22;8328;52.206;21.006;2022-08-19T06:14:33;26.70;99.90
16437;DHT22;8328;52.206;21.006;2022-08-19T06:20:42;26.30;99.90
16437;DHT22;8328;52.206;21.006;2022-08-19T06:23:10;26.30;99.90
16437;DHT22;8328;52.206;21.006;2022-08-19T06:29:21;26.30;99.90
16437;DHT22;8328;52.206;21.006;2022-08-19T06:39:55;26.70;99.90
16437;DHT22;8328;52.206;21.006;2022-08-19T06:42:21;27.10;99.90
16437;DHT22;8328;52.206;21.006;2022-08-19T06:44:47;27.30;99.90
16437;DHT22;8328;52.206;21.006;2022-08-19T06:47:24;27.20;99.90
16437;DHT22;8328;52.206;21.006;2022-08-19T06:50:00;27.10;99.90
16437;DHT22;8328;52.206;21.006;2022-08-19T06:52:34;26.90;99.90
16437;DHT22;8328;52.206;21.006;2022-08-19T06:55:02;26.80;99.90
16437;DHT22;8328;52.206;21.006;2022-08-19T07:00:03;26.70;99.90
16437;DHT22;8328;52.206;21.006;2022-08-19T07:04:55;27.10;99.90
16437;DHT22;8328;52.206;21.006;2022-08-19T07:07:26;27.20;99.90
16437;DHT22;8328;52.206;21.006;2022-08-19T07:09:52;27.20;99.90
16437;DHT22;8328;52.206;21.006;2022-08-19T07:12:19;27.10;99.90
16437;DHT22;8328;52.206;21.006;2022-08-19T07:14:45;27.10;99.90
16437;DHT22;8328;52.206;21.006;2022-08-19T07:17:11;27.20;99.90
16437;DHT22;8328;52.206;21.006;2022-08-19T07:19:38;27.20;99.90
16437;DHT22;8328;52.206;21.006;2022-08-19T07:22:06;27.40;99.90
16437;DHT22;8328;52.206;21.006;2022-08-19T07:24:32;27.60;99.90
16437;DHT22;8328;52.206;21.006;2022-08-19T07:27:00;27.80;99.90
16437;DHT22;8328;52.206;21.006;2022-08-19T07:29:33;27.90;99.90
16437;DHT22;8328;52.206;21.006;2022-08-19T07:32:01;28.00;99.90
16437;DHT22;8328;52.206;21.006;2022-08-19T07:34:29;28.10;99.90
16437;DHT22;8328;52.206;21.006;2022-08-19T07:36:55;28.20;99.90
16437;DHT22;8328;52.206;21.006;2022-08-19T07:39:27;28.20;99.90
16437;DHT22;8328;52.206;21.006;2022-08-19T07:41:54;28.30;99.90
16437;DHT22;8328;52.206;21.006;2022-08-19T07:44:21;28.30;99.90
16437;DHT22;8328;52.206;21.006;2022-08-19T07:46:53;28.40;99.90
16437;DHT22;8328;52.206;21.006;2022-08-19T07:49:21;28.50;99.90
16437;DHT22;8328;52.206;21.006;2022-08-19T07:51:51;28.60;99.90
16437;DHT22;8328;52.206;21.006;2022-08-19T07:54:20;28.70;99.90
16437;DHT22;8328;52.206;21.006;2022-08-19T07:56:55;28.60;99.90
16437;DHT22;8328;52.206;21.006;2022-08-19T07:59:24;28.60;99.90
16437;DHT22;8328;52.206;21.006;2022-08-19T08:01:50;28.60;99.90
16437;DHT22;8328;52.206;21.006;2022-08-19T08:04:17;28.60;99.90
16437;DHT22;8328;52.206;21.006;2022-08-19T08:07:02;28.50;99.90
16437;DHT22;8328;52.206;21.006;2022-08-19T08:09:46;28.40;99.90
16437;DHT22;8328;52.206;21.006;2022-08-19T08:12:19;28.40;99.90
16437;DHT22;8328;52.206;21.006;2022-08-19T08:14:51;28.40;99.90
16437;DHT22;8328;52.206;21.006;2022-08-19T08:17:21;28.40;99.90
16437;DHT22;8328;52.206;21.006;2022-08-19T08:19:54;28.40;99.90
16437;DHT22;8328;52.206;21.006;2022-08-19T08:22:21;28.40;99.90
16437;DHT22;8328;52.206;21.006;2022-08-19T08:25:09;28.50;99.90
16437;DHT22;8328;52.206;21.006;2022-08-19T08:27:40;28.50;99.90
16437;DHT22;8328;52.206;21.006;2022-08-19T08:30:24;28.50;99.90
16437;DHT22;8328;52.206;21.006;2022-08-19T08:32:51;28.50;99.90
16437;DHT22;8328;52.206;21.006;2022-08-19T08:35:20;28.70;99.90
16437;DHT22;8328;52.206;21.006;2022-08-19T08:37:50;28.60;99.90
16437;DHT22;8328;52.206;21.006;2022-08-19T08:40:32;28.70;99.90
16437;DHT22;8328;52.206;21.006;2022-08-19T08:43:33;28.80;99.90
16437;DHT22;8328;52.206;21.006;2022-08-19T08:51:27;29.00;99.90
16437;DHT22;8328;52.206;21.006;2022-08-19T08:53:55;29.20;99.90
16437;DHT22;8328;52.206;21.006;2022-08-19T08:56:22;29.20;99.90
16437;DHT22;8328;52.206;21.006;2022-08-19T09:01:32;29.50;99.90
16437;DHT22;8328;52.206;21.006;2022-08-19T09:03:58;29.70;99.90
16437;DHT22;8328;52.206;21.006;2022-08-19T09:06:41;29.70;99.90
16437;DHT22;8328;52.206;21.006;2022-08-19T09:09:30;29.80;99.90
16437;DHT22;8328;52.206;21.006;2022-08-19T09:12:23;29.90;99.90
16437;DHT22;8328;52.206;21.006;2022-08-19T09:17:22;30.20;99.90
16437;DHT22;8328;52.206;21.006;2022-08-19T09:22:36;30.40;99.90
16437;DHT22;8328;52.206;21.006;2022-08-19T09:25:04;30.50;99.90
16437;DHT22;8328;52.206;21.006;2022-08-19T09:27:30;30.60;99.90
16437;DHT22;8328;52.206;21.006;2022-08-19T09:29:57;30.70;99.90
16437;DHT22;8328;52.206;21.006;2022-08-19T09:32:23;30.80;99.90
16437;DHT22;8328;52.206;21.006;2022-08-19T09:34:59;30.90;99.90
16437;DHT22;8328;52.206;21.006;2022-08-19T09:37:27;31.00;99.90
16437;DHT22;8328;52.206;21.006;2022-08-19T09:39:55;31.20;99.90
16437;DHT22;8328;52.206;21.006;2022-08-19T09:42:21;31.30;99.90
16437;DHT22;8328;52.206;21.006;2022-08-19T09:44:47;31.30;99.90
16437;DHT22;8328;52.206;21.006;2022-08-19T09:47:13;31.40;99.90
16437;DHT22;8328;52.206;21.006;2022-08-19T09:49:40;31.50;99.90
16437;DHT22;8328;52.206;21.006;2022-08-19T09:52:08;31.70;99.90
16437;DHT22;8328;52.206;21.006;2022-08-19T09:54:36;31.70;99.90
16437;DHT22;8328;52.206;21.006;2022-08-19T09:57:05;31.80;99.90
16437;DHT22;8328;52.206;21.006;2022-08-19T09:59:31;31.80;99.90
16437;DHT22;8328;52.206;21.006;2022-08-19T10:01:57;31.80;99.90
16437;DHT22;8328;52.206;21.006;2022-08-19T10:04:23;31.90;99.90
16437;DHT22;8328;52.206;21.006;2022-08-19T10:07:11;32.00;99.90
16437;DHT22;8328;52.206;21.006;2022-08-19T10:09:37;32.10;99.90
16437;DHT22;8328;52.206;21.006;2022-08-19T10:12:04;32.10;99.90
16437;DHT22;8328;52.206;21.006;2022-08-19T10:14:31;32.20;99.90
16437;DHT22;8328;52.206;21.006;2022-08-19T10:16:57;32.20;99.90
16437;DHT22;8328;52.206;21.006;2022-08-19T10:19:22;32.30;99.90
16437;DHT22;8328;52.206;21.006;2022-08-19T10:21:52;32.30;99.90
16437;DHT22;8328;52.206;21.006;2022-08-19T10:24:18;32.40;99.90
16437;DHT22;8328;52.206;21.006;2022-08-19T10:26:45;32.40;99.90
16437;DHT22;8328;52.206;21.006;2022-08-19T10:29:13;32.50;99.90
16437;DHT22;8328;52.206;21.006;2022-08-19T10:31:41;32.60;99.90
16437;DHT22;8328;52.206;21.006;2022-08-19T10:34:08;32.70;98.80
16437;DHT22;8328;52.206;21.006;2022-08-19T10:36:36;32.90;98.10
16437;DHT22;8328;52.206;21.006;2022-08-19T10:39:11;33.00;97.20
16437;DHT22;8328;52.206;21.006;2022-08-19T10:41:39;33.20;96.20
16437;DHT22;8328;52.206;21.006;2022-08-19T10:44:10;33.40;95.40
16437;DHT22;8328;52.206;21.006;2022-08-19T10:46:39;33.40;94.10
16437;DHT22;8328;52.206;21.006;2022-08-19T10:49:07;33.60;92.90
16437;DHT22;8328;52.206;21.006;2022-08-19T10:51:33;33.80;92.50
16437;DHT22;8328;52.206;21.006;2022-08-19T10:54:17;34.00;91.70
16437;DHT22;8328;52.206;21.006;2022-08-19T10:56:43;34.20;91.20
16437;DHT22;8328;52.206;21.006;2022-08-19T10:59:27;34.40;91.10
16437;DHT22;8328;52.206;21.006;2022-08-19T11:02:01;34.70;89.30
16437;DHT22;8328;52.206;21.006;2022-08-19T11:04:28;34.70;86.50
16437;DHT22;8328;52.206;21.006;2022-08-19T11:06:56;34.90;84.60
16437;DHT22;8328;52.206;21.006;2022-08-19T11:09:25;35.10;82.80
16437;DHT22;8328;52.206;21.006;2022-08-19T11:11:55;35.30;82.30
16437;DHT22;8328;52.206;21.006;2022-08-19T11:14:23;35.50;79.20
16437;DHT22;8328;52.206;21.006;2022-08-19T11:16:52;35.70;78.10
16437;DHT22;8328;52.206;21.006;2022-08-19T11:19:22;36.10;76.50
16437;DHT22;8328;52.206;21.006;2022-08-19T11:21:52;36.40;73.60
16437;DHT22;8328;52.206;21.006;2022-08-19T11:24:24;36.60;71.20
16437;DHT22;8328;52.206;21.006;2022-08-19T11:26:52;36.80;68.50
16437;DHT22;8328;52.206;21.006;2022-08-19T11:29:20;37.10;67.10
16437;DHT22;8328;52.206;21.006;2022-08-19T11:31:48;37.40;65.80
16437;DHT22;8328;52.206;21.006;2022-08-19T11:34:25;37.60;63.10
16437;DHT22;8328;52.206;21.006;2022-08-19T11:36:53;38.10;61.40
16437;DHT22;8328;52.206;21.006;2022-08-19T11:39:26;38.30;59.70
16437;DHT22;8328;52.206;21.006;2022-08-19T11:41:52;38.50;57.50
16437;DHT22;8328;52.206;21.006;2022-08-19T11:44:18;38.70;55.90
16437;DHT22;8328;52.206;21.006;2022-08-19T11:46:46;38.80;53.80
16437;DHT22;8328;52.206;21.006;2022-08-19T11:49:14;39.00;53.40
16437;DHT22;8328;52.206;21.006;2022-08-19T11:51:41;39.00;51.40
16437;DHT22;8328;52.206;21.006;2022-08-19T11:54:11;39.00;50.50
16437;DHT22;8328;52.206;21.006;2022-08-19T11:56:41;39.40;49.40
16437;DHT22;8328;52.206;21.006;2022-08-19T11:59:07;39.50;48.40
16437;DHT22;8328;52.206;21.006;2022-08-19T12:01:33;39.70;47.30
16437;DHT22;8328;52.206;21.006;2022-08-19T12:04:01;39.70;46.30
16437;DHT22;8328;52.206;21.006;2022-08-19T12:06:30;39.70;46.20
16437;DHT22;8328;52.206;21.006;2022-08-19T12:09:01;39.80;45.50
16437;DHT22;8328;52.206;21.006;2022-08-19T12:11:28;40.00;44.90
16437;DHT22;8328;52.206;21.006;2022-08-19T12:13:54;40.00;44.10
16437;DHT22;8328;52.206;21.006;2022-08-19T12:16:23;40.00;43.60
16437;DHT22;8328;52.206;21.006;2022-08-19T12:18:50;40.20;43.30
16437;DHT22;8328;52.206;21.006;2022-08-19T12:21:21;40.40;42.80
16437;DHT22;8328;52.206;21.006;2022-08-19T12:23:49;40.60;41.70
16437;DHT22;8328;52.206;21.006;2022-08-19T12:26:16;40.70;41.40
16437;DHT22;8328;52.206;21.006;2022-08-19T12:28:48;41.00;40.60
16437;DHT22;8328;52.206;21.006;2022-08-19T12:31:15;41.10;40.30
16437;DHT22;8328;52.206;21.006;2022-08-19T12:33:43;41.20;39.40
16437;DHT22;8328;52.206;21.006;2022-08-19T12:36:11;41.40;38.70
16437;DHT22;8328;52.206;21.006;2022-08-19T12:38:38;41.30;37.30
16437;DHT22;8328;52.206;21.006;2022-08-19T12:41:11;41.30;37.50
16437;DHT22;8328;52.206;21.006;2022-08-19T12:43:43;41.40;37.30
16437;DHT22;8328;52.206;21.006;2022-08-19T12:46:11;41.90;36.10
16437;DHT22;8328;52.206;21.006;2022-08-19T12:48:37;42.50;36.00
16437;DHT22;8328;52.206;21.006;2022-08-19T12:51:09;42.80;35.00
16437;DHT22;8328;52.206;21.006;2022-08-19T12:53:36;43.50;34.00
16437;DHT22;8328;52.206;21.006;2022-08-19T12:56:06;44.00;32.40
16437;DHT22;8328;52.206;21.006;2022-08-19T12:58:32;44.40;31.30
16437;DHT22;8328;52.206;21.006;2022-08-19T13:01:06;44.90;29.90
16437;DHT22;8328;52.206;21.006;2022-08-19T13:03:32;45.60;28.70
16437;DHT22;8328;52.206;21.006;2022-08-19T13:05:58;45.80;27.80
16437;DHT22;8328;52.206;21.006;2022-08-19T13:08:24;45.90;27.00
16437;DHT22;8328;52.206;21.006;2022-08-19T13:10:50;46.50;26.00
16437;DHT22;8328;52.206;21.006;2022-08-19T13:13:16;46.60;25.20
16437;DHT22;8328;52.206;21.006;2022-08-19T13:15:42;47.20;24.70
16437;DHT22;8328;52.206;21.006;2022-08-19T13:18:10;47.50;23.70
16437;DHT22;8328;52.206;21.006;2022-08-19T13:20:37;47.60;22.90
16437;DHT22;8328;52.206;21.006;2022-08-19T13:23:04;48.00;22.30
16437;DHT22;8328;52.206;21.006;2022-08-19T13:25:30;48.30;21.60
16437;DHT22;8328;52.206;21.006;2022-08-19T13:27:57;48.00;21.50
16437;DHT22;8328;52.206;21.006;2022-08-19T13:30:22;48.20;21.00
16437;DHT22;8328;52.206;21.006;2022-08-19T13:33:08;48.40;20.50
16437;DHT22;8328;52.206;21.006;2022-08-19T13:35:38;48.60;20.20
16437;DHT22;8328;52.206;21.006;2022-08-19T13:38:05;48.40;20.00
16437;DHT22;8328;52.206;21.006;2022-08-19T13:40:32;47.90;19.50
16437;DHT22;8328;52.206;21.006;2022-08-19T13:43:00;47.20;19.90
16437;DHT22;8328;52.206;21.006;2022-08-19T13:45:28;47.40;19.90
16437;DHT22;8328;52.206;21.006;2022-08-19T13:47:56;47.60;19.50
16437;DHT22;8328;52.206;21.006;2022-08-19T13:50:29;47.40;19.10
16437;DHT22;8328;52.206;21.006;2022-08-19T13:52:57;46.90;19.10
16437;DHT22;8328;52.206;21.006;2022-08-19T13:55:23;44.50;20.50
16437;DHT22;8328;52.206;21.006;2022-08-19T13:57:57;42.70;22.30
16437;DHT22;8328;52.206;21.006;2022-08-19T14:00:28;41.50;23.80
16437;DHT22;8328;52.206;21.006;2022-08-19T14:02:56;40.70;24.90
16437;DHT22;8328;52.206;21.006;2022-08-19T14:05:24;40.10;25.80
16437;DHT22;8328;52.206;21.006;2022-08-19T14:07:50;39.60;26.30
16437;DHT22;8328;52.206;21.006;2022-08-19T14:10:17;39.20;26.80
16437;DHT22;8328;52.206;21.006;2022-08-19T14:12:44;39.00;27.00
16437;DHT22;8328;52.206;21.006;2022-08-19T14:15:11;38.90;27.10
16437;DHT22;8328;52.206;21.006;2022-08-19T14:17:38;39.10;27.30
16437;DHT22;8328;52.206;21.006;2022-08-19T14:20:06;40.50;26.20
16437;DHT22;8328;52.206;21.006;2022-08-19T14:22:39;39.90;25.50
16437;DHT22;8328;52.206;21.006;2022-08-19T14:25:08;39.40;26.30
16437;DHT22;8328;52.206;21.006;2022-08-19T14:27:37;38.90;26.80
16437;DHT22;8328;52.206;21.006;2022-08-19T14:30:05;38.40;27.60
16437;DHT22;8328;52.206;21.006;2022-08-19T14:32:32;38.00;28.40
16437;DHT22;8328;52.206;21.006;2022-08-19T14:35:01;37.70;28.60
16437;DHT22;8328;52.206;21.006;2022-08-19T14:37:27;37.40;29.10
16437;DHT22;8328;52.206;21.006;2022-08-19T14:39:53;37.10;29.50
16437;DHT22;8328;52.206;21.006;2022-08-19T14:42:19;36.80;29.60
16437;DHT22;8328;52.206;21.006;2022-08-19T14:44:44;36.70;29.70
16437;DHT22;8328;52.206;21.006;2022-08-19T14:47:10;36.40;29.90
16437;DHT22;8328;52.206;21.006;2022-08-19T14:49:37;36.20;30.20
16437;DHT22;8328;52.206;21.006;2022-08-19T14:52:03;36.00;30.30
16437;DHT22;8328;52.206;21.006;2022-08-19T14:54:29;35.70;30.60
16437;DHT22;8328;52.206;21.006;2022-08-19T14:56:55;35.50;31.00
16437;DHT22;8328;52.206;21.006;2022-08-19T14:59:21;35.30;31.60
16437;DHT22;8328;52.206;21.006;2022-08-19T15:01:47;35.20;32.00
16437;DHT22;8328;52.206;21.006;2022-08-19T15:04:13;35.20;32.30
16437;DHT22;8328;52.206;21.006;2022-08-19T15:06:39;35.00;32.70
16437;DHT22;8328;52.206;21.006;2022-08-19T15:09:05;34.90;33.30
16437;DHT22;8328;52.206;21.006;2022-08-19T15:11:31;34.90;33.30
16437;DHT22;8328;52.206;21.006;2022-08-19T15:13:58;34.80;33.10
16437;DHT22;8328;52.206;21.006;2022-08-19T15:16:26;34.80;33.30
16437;DHT22;8328;52.206;21.006;2022-08-19T15:18:55;34.70;33.40
16437;DHT22;8328;52.206;21.006;2022-08-19T15:21:23;34.70;33.80
16437;DHT22;8328;52.206;21.006;2022-08-19T15:23:50;34.50;33.90
16437;DHT22;8328;52.206;21.006;2022-08-19T15:26:18;34.50;34.30
16437;DHT22;8328;52.206;21.006;2022-08-19T15:28:45;34.50;34.50
16437;DHT22;8328;52.206;21.006;2022-08-19T15:31:12;34.30;34.50
16437;DHT22;8328;52.206;21.006;2022-08-19T15:33:39;34.20;34.90
16437;DHT22;8328;52.206;21.006;2022-08-19T15:36:10;34.00;35.00
16437;DHT22;8328;52.206;21.006;2022-08-19T15:38:38;33.90;35.20
16437;DHT22;8328;52.206;21.006;2022-08-19T15:41:04;33.80;35.70
16437;DHT22;8328;52.206;21.006;2022-08-19T15:43:52;33.70;36.10
16437;DHT22;8328;52.206;21.006;2022-08-19T15:46:22;33.50;36.50
16437;DHT22;8328;52.206;21.006;2022-08-19T15:48:49;33.40;37.10
16437;DHT22;8328;52.206;21.006;2022-08-19T15:51:15;33.30;37.40
16437;DHT22;8328;52.206;21.006;2022-08-19T15:53:41;33.30;37.70
16437;DHT22;8328;52.206;21.006;2022-08-19T15:56:08;33.10;37.70
16437;DHT22;8328;52.206;21.006;2022-08-19T15:58:34;33.00;38.20
16437;DHT22;8328;52.206;21.006;2022-08-19T16:01:18;32.80;38.40
16437;DHT22;8328;52.206;21.006;2022-08-19T16:04:03;32.70;38.90
16437;DHT22;8328;52.206;21.006;2022-08-19T16:06:56;32.70;39.40
16437;DHT22;8328;52.206;21.006;2022-08-19T16:09:26;32.50;39.80
16437;DHT22;8328;52.206;21.006;2022-08-19T16:11:58;32.40;40.20
16437;DHT22;8328;52.206;21.006;2022-08-19T16:14:26;32.30;40.40
16437;DHT22;8328;52.206;21.006;2022-08-19T16:16:52;32.20;40.60
16437;DHT22;8328;52.206;21.006;2022-08-19T16:19:21;32.10;41.00
16437;DHT22;8328;52.206;21.006;2022-08-19T16:21:52;32.00;41.60
16437;DHT22;8328;52.206;21.006;2022-08-19T16:24:21;31.90;42.00
16437;DHT22;8328;52.206;21.006;2022-08-19T16:26:47;31.80;42.30
16437;DHT22;8328;52.206;21.006;2022-08-19T16:29:15;31.70;42.40
16437;DHT22;8328;52.206;21.006;2022-08-19T16:31:42;31.60;42.70
16437;DHT22;8328;52.206;21.006;2022-08-19T16:34:08;31.50;43.60
16437;DHT22;8328;52.206;21.006;2022-08-19T16:36:34;31.40;44.10
16437;DHT22;8328;52.206;21.006;2022-08-19T16:39:00;31.20;43.60